sensor_id;sensor_type;location;lat;lon;timestamp;P1;durP1;ratioP1;P2;durP2;ratioP2
12373;SDS011;6251;51.762;8.660;2023-02-18T00:06:57;24.35;;;12.63;;
12373;SDS011;6251;51.762;8.660;2023-02-18T02:00:17;42.22;;;20.50;;
12373;SDS011;6251;51.762;8.660;2023-02-18T02:10:22;45.03;;;20.48;;
12373;SDS011;6251;51.762;8.660;2023-02-18T03:51:56;50.08;;;20.67;;
12373;SDS011;6251;51.762;8.660;2023-02-18T05:02:59;35.10;;;14.85;;
12373;SDS011;6251;51.762;8.660;2023-02-18T05:12:59;25.80;;;12.07;;
12373;SDS011;6251;51.762;8.660;2023-02-18T05:23:00;24.45;;;11.77;;
12373;SDS011;6251;51.762;8.660;2023-02-18T05:33:00;24.40;;;10.07;;
12373;SDS011;6251;51.762;8.660;2023-02-18T05:43:01;21.60;;;9.45;;
12373;SDS011;6251;51.762;8.660;2023-02-18T05:53:02;25.88;;;8.60;;
12373;SDS011;6251;51.762;8.660;2023-02-18T06:03:02;19.87;;;7.57;;
12373;SDS011;6251;51.762;8.660;2023-02-18T06:13:03;15.48;;;6.78;;
12373;SDS011;6251;51.762;8.660;2023-02-18T06:23:03;12.25;;;6.15;;
12373;SDS011;6251;51.762;8.660;2023-02-18T06:33:04;8.30;;;4.72;;
12373;SDS011;6251;51.762;8.660;2023-02-18T06:43:05;7.03;;;3.95;;
12373;SDS011;6251;51.762;8.660;2023-02-18T06:53:05;4.90;;;3.08;;
12373;SDS011;6251;51.762;8.660;2023-02-18T07:03:06;3.85;;;2.83;;
12373;SDS011;6251;51.762;8.660;2023-02-18T07:13:07;3.10;;;2.55;;
12373;SDS011;6251;51.762;8.660;2023-02-18T07:23:08;2.40;;;2.20;;
12373;SDS011;6251;51.762;8.660;2023-02-18T07:33:10;2.75;;;2.30;;
12373;SDS011;6251;51.762;8.660;2023-02-18T07:43:13;2.35;;;2.15;;
12373;SDS011;6251;51.762;8.660;2023-02-18T07:53:14;1.87;;;1.77;;
12373;SDS011;6251;51.762;8.660;2023-02-18T08:03:16;2.58;;;1.95;;
12373;SDS011;6251;51.762;8.660;2023-02-18T08:13:18;2.20;;;1.95;;
12373;SDS011;6251;51.762;8.660;2023-02-18T08:23:19;2.72;;;2.10;;
12373;SDS011;6251;51.762;8.660;2023-02-18T08:33:21;2.65;;;2.45;;
12373;SDS011;6251;51.762;8.660;2023-02-18T08:43:22;2.28;;;2.10;;
12373;SDS011;6251;51.762;8.660;2023-02-18T08:53:22;2.33;;;2.12;;
12373;SDS011;6251;51.762;8.660;2023-02-18T09:03:23;2.42;;;2.25;;
12373;SDS011;6251;51.762;8.660;2023-02-18T09:13:26;2.97;;;2.60;;
12373;SDS011;6251;51.762;8.660;2023-02-18T09:23:28;6.95;;;4.28;;
12373;SDS011;6251;51.762;8.660;2023-02-18T09:33:30;6.40;;;3.92;;
12373;SDS011;6251;51.762;8.660;2023-02-18T09:43:35;3.10;;;2.80;;
12373;SDS011;6251;51.762;8.660;2023-02-18T09:53:43;3.47;;;2.50;;
12373;SDS011;6251;51.762;8.660;2023-02-18T10:03:45;3.85;;;2.30;;
12373;SDS011;6251;51.762;8.660;2023-02-18T10:13:46;2.50;;;2.30;;
12373;SDS011;6251;51.762;8.660;2023-02-18T10:23:53;4.03;;;2.53;;
12373;SDS011;6251;51.762;8.660;2023-02-18T10:33:59;5.07;;;3.42;;
12373;SDS011;6251;51.762;8.660;2023-02-18T10:54:51;11.80;;;6.87;;
12373;SDS011;6251;51.762;8.660;2023-02-18T11:05:27;12.85;;;7.10;;
12373;SDS011;6251;51.762;8.660;2023-02-18T11:15:27;10.38;;;6.35;;
12373;SDS011;6251;51.762;8.660;2023-02-18T11:25:31;9.85;;;6.07;;
12373;SDS011;6251;51.762;8.660;2023-02-18T11:35:34;13.43;;;6.70;;
12373;SDS011;6251;51.762;8.660;2023-02-18T11:45:36;13.05;;;6.80;;
12373;SDS011;6251;51.762;8.660;2023-02-18T11:55:37;11.55;;;5.40;;
12373;SDS011;6251;51.762;8.660;2023-02-18T12:05:39;9.60;;;5.53;;
12373;SDS011;6251;51.762;8.660;2023-02-18T12:15:51;9.63;;;5.90;;
12373;SDS011;6251;51.762;8.660;2023-02-18T13:07:45;11.07;;;7.68;;
12373;SDS011;6251;51.762;8.660;2023-02-18T13:17:56;12.00;;;7.82;;
12373;SDS011;6251;51.762;8.660;2023-02-18T13:28:06;14.15;;;8.00;;
12373;SDS011;6251;51.762;8.660;2023-02-18T13:49:06;12.32;;;8.40;;
12373;SDS011;6251;51.762;8.660;2023-02-18T14:19:37;18.42;;;11.63;;
12373;SDS011;6251;51.762;8.660;2023-02-18T14:29:38;20.92;;;11.88;;
12373;SDS011;6251;51.762;8.660;2023-02-18T14:39:54;19.08;;;11.23;;
12373;SDS011;6251;51.762;8.660;2023-02-18T14:50:15;14.30;;;9.05;;
12373;SDS011;6251;51.762;8.660;2023-02-18T15:00:19;12.70;;;7.50;;
12373;SDS011;6251;51.762;8.660;2023-02-18T15:10:34;15.45;;;8.32;;
12373;SDS011;6251;51.762;8.660;2023-02-18T15:20:47;14.05;;;8.23;;
12373;SDS011;6251;51.762;8.660;2023-02-18T15:30:48;18.87;;;10.20;;
12373;SDS011;6251;51.762;8.660;2023-02-18T15:40:50;17.95;;;10.25;;
12373;SDS011;6251;51.762;8.660;2023-02-18T15:50:53;21.45;;;11.50;;
12373;SDS011;6251;51.762;8.660;2023-02-18T16:00:56;22.02;;;11.40;;
12373;SDS011;6251;51.762;8.660;2023-02-18T16:11:03;26.25;;;13.65;;
12373;SDS011;6251;51.762;8.660;2023-02-18T16:31:17;35.63;;;16.45;;
12373;SDS011;6251;51.762;8.660;2023-02-18T16:41:20;35.38;;;16.92;;
12373;SDS011;6251;51.762;8.660;2023-02-18T16:51:22;37.78;;;17.83;;
12373;SDS011;6251;51.762;8.660;2023-02-18T17:11:40;47.00;;;21.40;;
12373;SDS011;6251;51.762;8.660;2023-02-18T17:21:42;49.10;;;21.87;;
12373;SDS011;6251;51.762;8.660;2023-02-18T17:31:43;42.97;;;21.12;;
12373;SDS011;6251;51.762;8.660;2023-02-18T17:41:46;47.97;;;21.12;;
12373;SDS011;6251;51.762;8.660;2023-02-18T17:51:48;42.80;;;21.67;;
12373;SDS011;6251;51.762;8.660;2023-02-18T18:01:49;45.25;;;20.40;;
12373;SDS011;6251;51.762;8.660;2023-02-18T18:11:49;40.63;;;19.95;;
12373;SDS011;6251;51.762;8.660;2023-02-18T18:21:50;46.63;;;21.85;;
12373;SDS011;6251;51.762;8.660;2023-02-18T18:31:52;49.85;;;21.70;;
12373;SDS011;6251;51.762;8.660;2023-02-18T18:41:53;42.55;;;21.48;;
12373;SDS011;6251;51.762;8.660;2023-02-18T18:51:53;44.45;;;20.98;;
12373;SDS011;6251;51.762;8.660;2023-02-18T19:01:54;51.47;;;22.00;;
12373;SDS011;6251;51.762;8.660;2023-02-18T19:11:54;59.45;;;23.52;;
12373;SDS011;6251;51.762;8.660;2023-02-18T19:21:55;32.28;;;15.90;;
12373;SDS011;6251;51.762;8.660;2023-02-18T19:31:56;38.13;;;16.98;;
12373;SDS011;6251;51.762;8.660;2023-02-18T19:41:56;55.72;;;21.75;;
12373;SDS011;6251;51.762;8.660;2023-02-18T19:51:57;70.47;;;25.35;;
12373;SDS011;6251;51.762;8.660;2023-02-18T20:02:03;64.50;;;25.98;;
12373;SDS011;6251;51.762;8.660;2023-02-18T20:12:04;63.95;;;24.95;;
12373;SDS011;6251;51.762;8.660;2023-02-18T20:22:06;79.22;;;25.55;;
12373;SDS011;6251;51.762;8.660;2023-02-18T20:32:09;63.90;;;24.45;;
12373;SDS011;6251;51.762;8.660;2023-02-18T20:52:30;81.75;;;26.50;;
12373;SDS011;6251;51.762;8.660;2023-02-18T21:02:31;80.55;;;25.20;;
12373;SDS011;6251;51.762;8.660;2023-02-18T21:12:32;78.17;;;25.17;;
12373;SDS011;6251;51.762;8.660;2023-02-18T21:22:32;84.57;;;26.40;;
12373;SDS011;6251;51.762;8.660;2023-02-18T21:32:33;73.72;;;26.45;;
12373;SDS011;6251;51.762;8.660;2023-02-18T21:42:37;73.35;;;24.12;;
12373;SDS011;6251;51.762;8.660;2023-02-18T21:52:38;72.43;;;24.58;;
